Terminal Aerodrome Forecast
Issued by NWS

Home | Current Version | Previous Version | Text Only | Print | Product List | Glossary On
Versions: 1 2 3 4 5 6 7 8 9 10 11 12 13 14 15 16 17
000
FTUS44 KEPZ 270500
TAFTCS
TAF
KTCS 270537Z 2706/2806 02008KT P6SM VCSH BKN030 BKN100
      TEMPO 2706/2708 -SHRA OVC025
     FM271000 08006KT P6SM BKN020 BKN140
     FM271700 16011KT P6SM SCT140
     FM272100 19008KT P6SM SCT140 BKN250
     FM280400 23007KT P6SM FEW040 SCT250=

USA.gov is the U.S. government's official web portal to all federal, state and local government web resources and services.